createdAt,value
2022-09-18T00:00:59.028Z,94.63
2022-09-18T00:06:19.896Z,95.83
2022-09-18T00:11:28.605Z,96.67
2022-09-18T00:16:39.525Z,97.55
2022-09-18T00:21:49.098Z,98.51
2022-09-18T00:26:56.016Z,98.63
2022-09-18T00:32:01.580Z,99.28
2022-09-18T00:37:08.890Z,99.77
2022-09-18T00:42:24.070Z,99.96
2022-09-18T00:47:34.034Z,100.00
2022-09-18T00:52:52.913Z,100.00
2022-09-18T00:58:09.987Z,100.00
2022-09-18T01:03:17.187Z,100.00
2022-09-18T01:08:41.807Z,100.00
2022-09-18T01:14:01.339Z,100.00
2022-09-18T01:19:27.356Z,100.00
2022-09-18T01:24:47.063Z,100.00
2022-09-18T01:30:02.070Z,100.00
2022-09-18T01:35:41.526Z,100.00
2022-09-18T01:41:05.086Z,100.00
2022-09-18T01:46:20.151Z,100.00
2022-09-18T01:51:33.009Z,100.00
2022-09-18T01:56:45.408Z,100.00
2022-09-18T02:01:56.023Z,100.00
2022-09-18T02:07:14.569Z,100.00
2022-09-18T02:12:25.576Z,100.00
2022-09-18T02:17:37.262Z,100.00
2022-09-18T02:22:48.934Z,100.00
2022-09-18T02:27:59.997Z,100.00
2022-09-18T02:33:26.168Z,100.00
2022-09-18T02:44:21.045Z,100.00
2022-09-18T02:49:38.078Z,100.00
2022-09-18T02:54:50.714Z,100.00
2022-09-18T03:00:03.348Z,100.00
2022-09-18T03:05:11.651Z,100.00
2022-09-18T03:10:18.870Z,100.00
2022-09-18T03:15:27.376Z,100.00
2022-09-18T03:20:34.654Z,100.00
2022-09-18T03:25:43.540Z,100.00
2022-09-18T03:30:53.496Z,100.00
2022-09-18T03:36:00.462Z,100.00
2022-09-18T03:41:07.548Z,100.00
2022-09-18T03:46:15.704Z,100.00
2022-09-18T03:51:23.108Z,100.00
2022-09-18T03:56:31.541Z,100.00
2022-09-18T04:01:38.477Z,100.00
2022-09-18T04:06:43.833Z,100.00
2022-09-18T04:11:53.649Z,100.00
2022-09-18T04:17:00.756Z,100.00
2022-09-18T04:22:08.061Z,100.00
2022-09-18T04:27:13.622Z,100.00
2022-09-18T04:32:20.771Z,100.00
2022-09-18T04:37:30.791Z,100.00
2022-09-18T04:42:37.855Z,100.00
2022-09-18T04:47:46.891Z,100.00
2022-09-18T04:52:53.715Z,100.00
2022-09-18T04:58:00.575Z,100.00
2022-09-18T05:03:09.850Z,100.00
2022-09-18T05:08:17.498Z,100.00
2022-09-18T05:13:24.729Z,100.00
2022-09-18T05:18:35.136Z,100.00
2022-09-18T05:23:42.236Z,100.00
2022-09-18T05:28:51.631Z,100.00
2022-09-18T05:33:58.917Z,100.00
2022-09-18T05:39:06.635Z,100.00
2022-09-18T05:44:12.059Z,100.00
2022-09-18T05:49:19.160Z,100.00
2022-09-18T05:54:26.422Z,99.71
2022-09-18T05:59:33.437Z,99.63
2022-09-18T06:04:39.108Z,99.25
2022-09-18T06:09:46.104Z,99.32
2022-09-18T06:14:53.100Z,99.17
2022-09-18T06:20:00.359Z,99.25
2022-09-18T06:25:09.361Z,99.50
2022-09-18T06:30:17.176Z,98.86
2022-09-18T06:35:24.981Z,97.30
2022-09-18T06:40:33.330Z,96.38
2022-09-18T06:45:40.242Z,95.37
2022-09-18T06:53:30.414Z,94.27
2022-09-18T06:58:37.559Z,93.02
2022-09-18T07:03:42.909Z,93.42
2022-09-18T07:08:52.917Z,92.10
2022-09-18T07:13:59.832Z,91.75
2022-09-18T07:19:08.976Z,90.58
2022-09-18T07:24:18.324Z,91.20
2022-09-18T07:29:26.955Z,90.05
2022-09-18T07:34:33.893Z,87.48
2022-09-18T07:39:39.620Z,86.48
2022-09-18T07:44:46.721Z,87.17
2022-09-18T07:49:53.822Z,88.60
2022-09-18T07:55:00.960Z,87.82
2022-09-18T08:00:11.375Z,86.60
2022-09-18T08:05:18.851Z,85.16
2022-09-18T08:10:26.606Z,85.34
2022-09-18T08:15:34.313Z,85.63
2022-09-18T08:20:41.931Z,85.73
2022-09-18T08:25:49.953Z,85.26
2022-09-18T08:30:58.279Z,84.56
2022-09-18T08:36:05.816Z,83.35
2022-09-18T08:41:25.515Z,83.22
2022-09-18T08:46:39.371Z,84.15
2022-09-18T08:51:53.505Z,83.40
2022-09-18T08:57:06.526Z,82.55
2022-09-18T09:02:46.654Z,80.68
2022-09-18T09:08:17.514Z,78.81
2022-09-18T09:13:50.856Z,79.25
2022-09-18T09:19:02.375Z,79.11
2022-09-18T09:24:22.222Z,78.21
2022-09-18T09:29:32.786Z,79.75
2022-09-18T09:34:45.713Z,78.17
2022-09-18T09:39:58.962Z,77.95
2022-09-18T09:45:15.889Z,79.99
2022-09-18T09:50:38.532Z,78.95
2022-09-18T09:55:56.765Z,77.96
2022-09-18T10:01:11.932Z,78.49
2022-09-18T10:06:35.945Z,77.66
2022-09-18T10:11:48.711Z,77.80
2022-09-18T10:16:57.959Z,77.39
2022-09-18T10:22:08.801Z,77.22
2022-09-18T10:27:17.518Z,76.92
2022-09-18T10:32:39.294Z,76.89
2022-09-18T10:37:46.189Z,76.65
2022-09-18T10:42:56.144Z,76.51
2022-09-18T10:48:15.936Z,80.61
2022-09-18T10:53:32.216Z,81.72
2022-09-18T10:58:39.620Z,83.00
2022-09-18T11:03:50.105Z,82.97
2022-09-18T11:09:00.714Z,82.56
2022-09-18T11:14:17.985Z,78.97
2022-09-18T11:19:28.645Z,78.07
2022-09-18T11:24:37.579Z,77.82
2022-09-18T11:29:44.694Z,78.59
2022-09-18T11:34:55.044Z,80.13
2022-09-18T11:40:26.585Z,84.53
2022-09-18T11:45:54.041Z,87.05
2022-09-18T11:51:04.630Z,89.51
2022-09-18T11:56:16.203Z,91.27
2022-09-18T12:01:32.189Z,91.87
2022-09-18T12:06:52.470Z,93.28
2022-09-18T12:12:05.429Z,93.27
2022-09-18T12:17:19.359Z,91.85
2022-09-18T12:22:30.635Z,91.46
2022-09-18T12:27:42.470Z,91.92
2022-09-18T12:33:07.556Z,91.73
2022-09-18T12:38:28.514Z,91.08
2022-09-18T12:43:56.905Z,90.54
2022-09-18T12:49:32.808Z,90.47
2022-09-18T12:54:53.416Z,90.17
2022-09-18T13:00:07.397Z,91.09
2022-09-18T13:05:19.757Z,89.88
2022-09-18T13:10:31.192Z,90.81
2022-09-18T13:15:45.070Z,92.02
2022-09-18T13:20:54.314Z,92.95
2022-09-18T13:26:03.210Z,92.03
2022-09-18T13:36:28.587Z,92.68
2022-09-18T13:41:47.506Z,92.67
2022-09-18T13:46:57.442Z,93.41
2022-09-18T13:52:29.980Z,92.66
2022-09-18T13:57:37.886Z,92.58
2022-09-18T14:02:44.777Z,93.82
2022-09-18T14:08:36.216Z,94.40
2022-09-18T14:13:52.045Z,94.15
2022-09-18T14:19:05.685Z,93.78
2022-09-18T14:24:56.584Z,93.90
2022-09-18T14:30:15.401Z,93.75
2022-09-18T14:35:29.775Z,93.32
2022-09-18T14:40:44.093Z,93.03
2022-09-18T14:45:51.488Z,93.15
2022-09-18T14:51:17.811Z,93.79
2022-09-18T14:56:29.630Z,94.11
2022-09-18T15:01:39.015Z,94.29
2022-09-18T15:06:51.139Z,94.34
2022-09-18T15:12:02.597Z,94.20
2022-09-18T15:17:20.685Z,93.92
2022-09-18T15:22:28.745Z,94.40
2022-09-18T15:27:36.223Z,93.29
2022-09-18T15:32:47.724Z,92.43
2022-09-18T15:38:02.544Z,92.12
2022-09-18T15:43:41.306Z,91.21
2022-09-18T15:48:49.395Z,91.28
2022-09-18T15:54:07.775Z,91.52
2022-09-18T15:59:26.417Z,91.85
2022-09-18T16:04:35.143Z,92.22
2022-09-18T16:09:45.320Z,91.85
2022-09-18T16:15:03.143Z,91.93
2022-09-18T16:20:36.611Z,91.44
2022-09-18T16:25:45.443Z,91.12
2022-09-18T16:30:56.079Z,91.20
2022-09-18T16:36:08.271Z,91.36
2022-09-18T16:41:15.197Z,91.36
2022-09-18T16:46:24.084Z,91.09
2022-09-18T16:51:33.697Z,91.41
2022-09-18T16:56:44.840Z,91.57
2022-09-18T17:02:03.289Z,91.89
2022-09-18T17:07:11.472Z,91.77
2022-09-18T17:12:18.695Z,91.66
2022-09-18T17:17:25.879Z,91.57
2022-09-18T17:22:33.886Z,91.37
2022-09-18T17:27:43.716Z,91.68
2022-09-18T17:32:51.625Z,92.09
2022-09-18T17:38:01.062Z,92.65
2022-09-18T17:43:08.326Z,92.89
2022-09-18T17:48:16.286Z,93.23
2022-09-18T17:53:23.889Z,93.32
2022-09-18T17:58:32.446Z,93.39
2022-09-18T18:03:39.880Z,93.41
2022-09-18T18:08:47.445Z,93.16
2022-09-18T18:13:58.044Z,92.93
2022-09-18T18:19:12.401Z,93.08
2022-09-18T18:24:20.906Z,92.90
2022-09-18T18:29:28.304Z,93.08
2022-09-18T18:34:39.155Z,92.91
2022-09-18T18:39:47.190Z,93.35
2022-09-18T18:44:55.514Z,92.64
2022-09-18T18:50:03.867Z,92.42
2022-09-18T18:55:12.198Z,92.34
2022-09-18T19:00:27.661Z,92.14
2022-09-18T19:05:35.489Z,92.15
2022-09-18T19:10:43.625Z,92.75
2022-09-18T19:15:55.562Z,93.49
2022-09-18T19:21:03.929Z,93.86
2022-09-18T19:26:16.452Z,94.31
2022-09-18T19:31:27.141Z,94.91
2022-09-18T19:36:40.297Z,95.07
2022-09-18T19:41:52.704Z,94.77
2022-09-18T19:47:03.719Z,95.07
2022-09-18T19:52:18.119Z,94.34
2022-09-18T19:57:27.725Z,94.39
2022-09-18T20:02:34.912Z,94.16
2022-09-18T20:07:42.528Z,94.97
2022-09-18T20:12:52.728Z,95.01
2022-09-18T20:18:03.813Z,95.06
2022-09-18T20:23:14.299Z,95.09
2022-09-18T20:28:24.269Z,95.22
2022-09-18T20:33:31.827Z,94.93
2022-09-18T20:38:41.038Z,95.07
2022-09-18T20:43:53.418Z,94.82
2022-09-18T20:49:03.533Z,94.34
2022-09-18T20:54:11.799Z,94.24
2022-09-18T20:59:21.190Z,93.88
2022-09-18T21:04:30.854Z,94.02
2022-09-18T21:09:37.671Z,94.26
2022-09-18T21:14:44.806Z,94.26
2022-09-18T21:19:50.484Z,93.94
2022-09-18T21:25:03.308Z,94.17
2022-09-18T21:30:15.560Z,94.08
2022-09-18T21:35:23.727Z,93.95
2022-09-18T21:40:32.031Z,94.08
2022-09-18T21:45:40.618Z,93.63
2022-09-18T21:50:51.789Z,93.70
2022-09-18T21:56:12.202Z,93.71
2022-09-18T22:01:28.410Z,94.05
2022-09-18T22:06:39.813Z,94.65
2022-09-18T22:11:48.042Z,94.59
2022-09-18T22:16:57.682Z,95.17
2022-09-18T22:22:05.191Z,95.63
2022-09-18T22:27:15.269Z,95.67
2022-09-18T22:32:21.128Z,95.98
2022-09-18T22:43:15.870Z,96.32
2022-09-18T22:48:22.738Z,96.65
2022-09-18T22:53:32.503Z,97.16
2022-09-18T22:58:42.956Z,97.85
2022-09-18T23:03:51.232Z,98.48
2022-09-18T23:18:56.241Z,99.18
2022-09-18T23:24:08.910Z,98.58
2022-09-18T23:29:20.676Z,98.23
2022-09-18T23:34:30.618Z,98.82
2022-09-18T23:39:37.645Z,99.24
2022-09-18T23:44:45.781Z,98.48
2022-09-18T23:49:55.942Z,98.35
2022-09-18T23:55:08.567Z,98.64
